Latest Weather Observations for Williamtown

IDN60801

Issued at 9:02 am EST Sunday 19 April 2015 (issued every 30 minutes, with the page automatically refreshed every 10 minutes)

About weather observations | Map of weather stations | Latest weather observations for NSW | Other Formats
Station Details ID: 061078 Name: WILLIAMTOWN RAAF Lat: -32.79 Lon: 151.84 Height: 9.0 m
Data from the previous 72 hours. | See also: Recent months at Williamtown
Date/Time
EST
Temp
°C
App
Temp
°C
Dew
Point
Rel
Hum
%
Delta-T
°C
Wind Press
QNH
hPa
Press
MSL
hPa
Rain
since 9 am
mm
Dir
 
Spd
km/h
Gust
km/h
Spd
kts
Gust
kts
19/08:30am 19.0 17.7 16.8 87 1.3 WNW 19 26 10 14 1017.7 1017.6 8.0
19/08:00am 18.0 18.2 16.8 93 0.7 W 11 13 6 7 1017.6 1017.5 8.0
19/07:30am 17.9 18.4 16.6 92 0.8 W 9 13 5 7 1017.2 1017.1 8.0
19/07:00am 17.4 17.5 16.6 95 0.5 NW 11 13 6 7 1016.7 1016.6 8.0
19/06:30am 17.2 16.5 16.5 96 0.4 NW 15 17 8 9 1016.3 1016.2 8.0
19/06:00am 17.4 18.3 16.6 95 0.5 NW 7 11 4 6 1016.2 1016.1 8.0
19/05:30am 17.6 17.7 16.6 94 0.6 NNW 11 13 6 7 1015.7 1015.6 8.0
19/05:00am 17.5 18.1 16.8 96 0.4 NNW 9 13 5 7 1015.3 1015.2 7.8
19/04:30am 17.6 18.2 16.8 95 0.5 NNW 9 13 5 7 1015.4 1015.3 7.6
19/04:00am 17.7 17.6 16.9 95 0.5 NW 13 15 7 8 1015.5 1015.4 6.8
19/03:30am 17.7 17.6 16.9 95 0.5 N 13 15 7 8 1015.0 1014.9 6.4
19/03:00am 17.6 17.4 16.8 95 0.5 N 13 20 7 11 1015.1 1015.0 6.2
19/02:59am 17.7 17.1 16.7 94 0.6 N 15 20 8 11 1015.1 1015.0 6.2
19/02:30am 18.0 17.5 17.0 94 0.6 NNW 15 22 8 12 1015.6 1015.5 3.4
19/02:16am 18.4 17.4 16.7 90 1.0 NW 17 24 9 13 1015.8 1015.7 1.8
19/02:00am 19.3 18.2 16.3 83 1.8 NW 17 26 9 14 1016.0 1015.9 0.6
19/01:30am 19.7 19.4 16.5 82 1.9 NW 13 17 7 9 1015.7 1015.6 0.4
19/01:00am 19.7 19.3 17.1 85 1.6 WNW 15 22 8 12 1015.8 1015.7 0.4
19/12:30am 21.0 20.2 16.0 73 3.0 W 15 20 8 11 1015.9 1015.8 0.0
19/12:00am 21.1 19.5 15.9 72 3.1 WNW 19 26 10 14 1015.7 1015.6 0.0
 
Date/Time
EST
Temp
°C
App
Temp
°C
Dew
Point
Rel
Hum
%
Delta-T
°C
Wind Press
QNH
hPa
Press
MSL
hPa
Rain
since 9 am
mm
Dir
 
Spd
km/h
Gust
km/h
Spd
kts
Gust
kts
18/11:30pm 21.3 20.8 16.0 72 3.2 N 13 17 7 9 1015.1 1015.0 0.0
18/11:00pm 21.0 20.9 16.0 73 3.0 NNE 11 15 6 8 1014.9 1014.8 0.0
18/10:30pm 21.0 20.6 16.2 74 2.9 NNE 13 15 7 8 1015.2 1015.1 0.0
18/10:00pm 21.2 20.9 16.4 74 2.9 NNE 13 17 7 9 1015.5 1015.4 0.0
18/09:30pm 21.1 21.2 16.6 75 2.7 NNE 11 13 6 7 1015.7 1015.6 0.0
18/09:00pm 21.1 21.2 16.6 75 2.7 NNE 11 11 6 6 1015.6 1015.5 0.0
18/08:30pm 21.4 22.4 16.8 75 2.8 NNE 7 9 4 5 1015.4 1015.3 0.0
18/08:00pm 22.1 22.2 16.5 70 3.4 NNE 11 15 6 8 1015.2 1015.1 0.0
18/07:30pm 22.4 23.0 16.7 70 3.5 NNE 9 13 5 7 1015.0 1014.9 0.0
18/07:00pm 22.6 22.9 16.9 70 3.5 NNE 11 13 6 7 1014.9 1014.8 0.0
18/06:30pm 22.1 23.0 17.6 75 2.8 NE 9 13 5 7 1014.8 1014.7 0.0
18/06:00pm 22.1 23.2 17.9 77 2.6 NE 9 13 5 7 1014.7 1014.6 0.0
18/05:30pm 22.8 23.4 17.8 73 3.1 NE 11 15 6 8 1014.7 1014.6 0.0
18/05:00pm 23.3 23.4 17.5 70 3.6 NE 13 15 7 8 1014.8 1014.7 0.0
18/04:30pm 23.8 24.5 17.9 69 3.7 NE 11 13 6 7 1014.9 1014.8 0.0
18/04:00pm 24.2 24.5 18.0 68 3.9 NE 13 19 7 10 1014.8 1014.7 0.0
18/03:30pm 24.7 25.3 17.7 65 4.4 NE 11 13 6 7 1015.4 1015.3 0.0
18/03:00pm 25.1 25.8 17.0 60 5.0 NNE 9 13 5 7 1015.7 1015.6 0.0
18/02:30pm 25.4 24.7 15.3 53 6.1 NNE 13 17 7 9 1015.9 1015.8 0.0
18/02:00pm 25.8 25.1 15.4 52 6.3 NNE 13 19 7 10 1016.0 1015.9 0.0
18/01:30pm 25.4 25.8 16.3 57 5.6 NNE 9 19 5 10 1016.1 1016.0 0.0
18/01:00pm 25.2 25.1 15.0 53 6.1 NNE 9 13 5 7 1016.6 1016.5 0.0
18/12:30pm 25.7 26.2 17.5 60 5.1 N 11 15 6 8 1016.9 1016.8 0.0
18/12:00pm 24.1 24.9 18.2 69 3.7 NNE 11 15 6 8 1017.4 1017.3 0.0
18/11:30am 23.3 24.6 18.4 74 3.1 NNE 9 13 5 7 1018.1 1018.0 0.0
18/11:00am 22.6 23.8 18.3 76 2.7 N 9 13 5 7 1018.5 1018.4 0.0
18/10:30am 21.5 23.3 19.6 89 1.2 NNW 9 11 5 6 1018.9 1018.8 0.0
18/10:27am 21.4 23.2 19.5 89 1.2 NNW 9 11 5 6 1019.0 1018.9 0.0
18/10:00am 20.2 21.9 19.4 95 0.5 NNE 9 11 5 6 1019.3 1019.2 0.0
18/09:40am 19.9 21.6 19.3 96 0.4 N 9 13 5 7 1019.6 1019.5 0.0
18/09:30am 20.2 22.0 19.6 96 0.4 N 9 13 5 7 1019.7 1019.6 0.0
18/09:16am 20.2 22.2 19.9 98 0.2 NNW 9 15 5 8 1019.9 1019.8 0.0
18/09:00am 20.0 21.4 19.5 97 0.3 NW 11 15 6 8 1019.8 1019.7 0.0
18/08:30am 20.1 22.3 19.6 97 0.3 NNE 7 11 4 6 1019.8 1019.7 0.0
18/08:13am 20.0 22.3 19.8 99 0.1 N 7 9 4 5 1019.8 1019.7 0.0
18/08:00am 19.9 21.8 19.7 99 0.1 NNE 9 13 5 7 1019.7 1019.6 0.0
18/07:30am 19.3 20.9 19.1 99 0.1 N 9 11 5 6 1019.6 1019.5 0.0
18/07:00am 19.3 20.9 19.1 99 0.1 NW 9 11 5 6 1019.5 1019.4 0.0
18/06:54am 19.3 20.9 19.1 99 0.1 NW 9 11 5 6 1019.4 1019.3 0.0
18/06:30am 19.1 21.0 18.9 99 0.1 NNW 7 9 4 5 1019.1 1019.0 0.0
18/06:00am 18.7 19.7 18.7 100 0.0 NW 11 15 6 8 1019.0 1018.9 0.0
18/05:30am 18.2 18.9 18.0 99 0.1 NNW 11 13 6 7 1018.9 1018.8 0.0
18/05:00am 16.9 17.5 16.7 99 0.1 NW 9 11 5 6 1018.6 1018.5 0.0
18/04:38am 16.2 18.2 15.9 98 0.2 CALM 0 0 0 0 1018.5 1018.4 0.0
18/04:30am 16.0 17.9 15.7 98 0.2 CALM 0 0 0 0 1018.4 1018.3 0.0
18/04:28am 15.8 17.6 15.6 99 0.1 CALM 0 0 0 0 1018.4 1018.3 0.0
18/04:27am 15.8 17.6 15.5 98 0.2 CALM 0 0 0 0 1018.4 1018.3 0.0
18/04:10am 16.8 19.0 16.5 98 0.2 CALM 0 0 0 0 1018.2 1018.1 0.0
18/04:00am 17.0 19.4 17.0 100 0.0 CALM 0 0 0 0 1018.1 1018.0 0.0
18/03:59am 17.4 20.0 17.4 100 0.0 CALM 0 0 0 0 1018.1 1018.0 0.0
18/03:34am 17.3 19.6 16.8 97 0.3 CALM 0 0 0 0 1018.1 1018.0 0.0
18/03:30am 16.2 18.3 16.2 100 0.0 CALM 0 0 0 0 1018.1 1018.0 0.0
18/03:00am 16.7 19.0 16.7 100 0.0 CALM 0 0 0 0 1018.1 1018.0 0.0
18/02:30am 17.9 20.6 17.7 99 0.1 CALM 0 0 0 0 1018.3 1018.2 0.0
18/02:00am 18.1 21.0 18.1 100 0.0 CALM 0 0 0 0 1018.5 1018.4 0.0
18/01:37am 18.5 20.2 18.5 100 0.0 E 7 9 4 5 1018.9 1018.8 0.0
18/01:30am 19.0 20.5 18.8 99 0.1 ENE 9 11 5 6 1018.9 1018.8 0.0
18/01:25am 19.0 20.5 18.8 99 0.1 ENE 9 11 5 6 1019.1 1019.0 0.0
18/01:00am 18.3 21.1 18.0 98 0.2 CALM 0 0 0 0 1019.3 1019.2 0.0
18/12:30am 18.1 20.8 17.8 98 0.2 CALM 0 0 0 0 1019.5 1019.4 0.0
18/12:00am 18.2 21.0 18.0 99 0.1 CALM 0 0 0 0 1020.3 1020.2 0.0
 
Date/Time
EST
Temp
°C
App
Temp
°C
Dew
Point
Rel
Hum
%
Delta-T
°C
Wind Press
QNH
hPa
Press
MSL
hPa
Rain
since 9 am
mm
Dir
 
Spd
km/h
Gust
km/h
Spd
kts
Gust
kts
17/11:30pm 18.6 21.5 18.3 98 0.2 CALM 0 0 0 0 1020.4 1020.3 0.0
17/11:00pm 18.7 21.7 18.5 99 0.1 CALM 0 0 0 0 1020.6 1020.5 0.0
17/10:47pm 18.8 21.8 18.5 98 0.2 CALM 0 0 0 0 1020.6 1020.5 0.0
17/10:39pm 18.8 21.8 18.5 98 0.2 CALM 0 0 0 0 1020.6 1020.5 0.0
17/10:30pm 18.7 21.6 18.2 97 0.3 CALM 0 0 0 0 1020.7 1020.6 0.0
17/10:00pm 19.2 22.3 18.6 96 0.4 CALM 0 0 0 0 1021.0 1020.9 0.0
17/09:36pm 19.4 22.6 18.8 96 0.4 CALM 0 0 0 0 1021.0 1020.9 0.0
17/09:30pm 19.3 22.4 18.7 96 0.4 CALM 0 0 0 0 1021.1 1021.0 0.0
17/09:25pm 19.5 22.8 19.0 97 0.3 CALM 0 0 0 0 1021.1 1021.0 0.0
17/09:00pm 19.5 22.7 18.9 96 0.4 CALM 0 0 0 0 1021.0 1020.9 0.0
17/08:30pm 20.0 23.3 19.2 95 0.5 CALM 0 0 0 0 1021.2 1021.1 0.0
17/08:11pm 19.7 22.9 18.9 95 0.5 CALM 0 0 0 0 1021.3 1021.2 0.0
17/08:00pm 20.0 23.4 19.4 96 0.4 CALM 0 0 0 0 1021.2 1021.1 0.0
17/07:58pm 20.2 23.7 19.6 96 0.4 CALM 0 0 0 0 1021.2 1021.1 0.0
17/07:30pm 20.5 24.0 19.6 95 0.6 CALM 0 0 0 0 1021.2 1021.1 0.0
17/07:00pm 20.7 24.4 19.9 95 0.5 CALM 0 0 0 0 1021.1 1021.0 0.0
17/06:30pm 21.1 24.9 20.2 95 0.6 CALM 0 0 0 0 1020.8 1020.7 0.0
17/06:00pm 21.0 24.2 19.7 92 0.8 SSE 2 7 1 4 1020.7 1020.6 0.0
17/05:30pm 21.7 23.8 20.1 91 1.0 SE 9 9 5 5 1020.6 1020.5 0.0
17/05:00pm 22.4 23.7 20.1 87 1.5 SSE 13 15 7 8 1020.6 1020.5 0.0
17/04:48pm 22.5 24.2 20.2 87 1.5 SSE 11 15 6 8 1020.6 1020.5 0.0
17/04:34pm 22.5 23.7 20.0 86 1.6 S 13 20 7 11 1020.5 1020.4 0.0
17/04:30pm 22.6 23.4 19.9 85 1.7 S 15 20 8 11 1020.5 1020.4 0.0
17/04:00pm 22.8 23.1 19.5 81 2.1 S 17 20 9 11 1020.6 1020.5 0.0
17/03:30pm 23.3 23.6 19.5 79 2.4 SSE 17 26 9 14 1020.6 1020.5 0.0
17/03:00pm 23.7 23.5 19.3 76 2.8 SSE 19 24 10 13 1020.8 1020.7 0.0
17/02:30pm 23.9 23.7 19.4 76 2.9 SSE 19 24 10 13 1020.9 1020.8 0.0
17/02:00pm 24.0 23.8 19.3 75 3.0 SSE 19 26 10 14 1021.2 1021.1 0.0
17/01:30pm 24.9 24.7 19.4 71 3.5 SSE 19 28 10 15 1021.3 1021.2 0.0
17/01:00pm 24.5 24.2 19.2 72 3.4 SSE 19 24 10 13 1021.7 1021.6 0.0
17/12:30pm 24.4 24.5 19.2 73 3.3 SSE 17 26 9 14 1022.4 1022.3 0.0
17/12:00pm 24.3 24.7 19.1 73 3.3 SE 15 20 8 11 1023.0 1022.9 0.0
17/11:30am 24.5 24.4 18.8 70 3.6 SE 17 20 9 11 1023.2 1023.1 0.0
17/11:00am 23.9 24.3 19.0 74 3.1 SSE 15 20 8 11 1023.8 1023.7 0.0
17/10:30am 23.3 23.5 19.4 79 2.5 SSE 17 22 9 12 1024.0 1023.9 0.0
17/10:00am 23.2 23.8 19.4 79 2.4 S 15 20 8 11 1024.4 1024.3 0.0
17/09:30am 23.4 24.5 19.6 79 2.4 S 13 19 7 10 1024.3 1024.2 0.0
17/09:08am 23.3 25.5 19.7 80 2.3 SSW 7 13 4 7 1024.4 1024.3 0.0
17/09:00am 22.3 24.5 19.5 84 1.8 S 7 11 4 6 1024.4 1024.3 0.0
17/08:30am 21.8 23.5 19.4 86 1.5 SW 9 13 5 7 1024.3 1024.2 0.0
17/08:00am 21.4 23.1 19.3 88 1.3 WSW 9 15 5 8 1024.2 1024.1 0.0
17/07:40am 21.2 22.9 19.3 89 1.2 WSW 9 9 5 5 1024.1 1024.0 0.0
17/07:30am 21.0 23.1 19.4 90 1.0 SW 7 9 4 5 1024.1 1024.0 0.0
17/07:00am 20.6 22.2 19.2 92 0.9 SW 9 11 5 6 1023.8 1023.7 0.0
17/06:30am 19.6 20.5 18.5 93 0.7 SSW 11 15 6 8 1023.5 1023.4 0.0
17/06:00am 20.2 21.3 18.8 92 0.9 SW 11 17 6 9 1023.1 1023.0 0.0
17/05:43am 20.2 20.9 18.9 92 0.8 SW 13 17 7 9 1023.1 1023.0 0.0
17/05:36am 20.3 20.7 18.9 92 0.9 SSW 15 19 8 10 1023.0 1022.9 0.0
17/05:30am 20.2 20.9 18.9 92 0.8 SW 13 19 7 10 1023.0 1022.9 0.0
17/05:13am 20.3 21.0 18.9 92 0.9 SW 13 17 7 9 1022.8 1022.7 0.0
17/05:10am 20.3 21.0 18.9 92 0.9 SW 13 17 7 9 1022.8 1022.7 0.0
17/05:00am 20.7 21.9 19.1 90 1.0 SW 11 15 6 8 1022.7 1022.6 0.0
17/04:39am 20.7 21.6 19.3 92 0.9 SW 13 17 7 9 1022.8 1022.7 0.0
17/04:30am 20.7 21.1 19.1 90 1.0 SW 15 19 8 10 1022.7 1022.6 0.0
17/04:06am 21.1 21.7 19.4 90 1.1 SSW 15 20 8 11 1022.6 1022.5 0.0
17/04:00am 21.1 21.3 19.4 90 1.1 SSW 17 24 9 13 1022.6 1022.5 0.0
17/03:30am 21.2 21.8 19.5 90 1.1 SW 15 19 8 10 1022.4 1022.3 0.0
17/03:00am 21.0 21.5 19.3 90 1.1 SSW 15 19 8 10 1022.3 1022.2 0.0
17/02:30am 21.0 21.2 19.3 90 1.1 SSW 17 22 9 12 1022.1 1022.0 0.0
17/02:24am 21.0 21.1 19.1 89 1.2 SSW 17 22 9 12 1022.1 1022.0 0.0
17/02:00am 20.8 20.4 19.0 89 1.1 SSW 19 28 10 15 1022.4 1022.3 0.0
17/01:51am 20.9 20.4 19.0 89 1.2 SSW 20 28 11 15 1022.4 1022.3 0.0
17/01:30am 20.9 19.1 18.8 88 1.3 SSW 26 35 14 19 1022.3 1022.2 0.0
17/01:04am 20.8 19.5 19.0 89 1.1 SSW 24 32 13 17 1022.4 1022.3 0.0
17/01:00am 20.8 19.9 19.0 89 1.1 SSW 22 32 12 17 1022.3 1022.2 0.0
17/12:30am 20.8 19.1 19.0 89 1.1 SSW 26 33 14 18 1022.1 1022.0 0.0
17/12:00am 21.0 19.1 19.3 90 1.1 SSW 28 35 15 19 1022.0 1021.9 0.0
 
Date/Time
EST
Temp
°C
App
Temp
°C
Dew
Point
Rel
Hum
%
Delta-T
°C
Wind Press
QNH
hPa
Press
MSL
hPa
Rain
since 9 am
mm
Dir
 
Spd
km/h
Gust
km/h
Spd
kts
Gust
kts
16/11:30pm 21.0 20.7 19.6 92 0.9 SSW 20 28 11 15 1022.0 1021.9 0.0
16/11:00pm 21.4 21.0 19.3 88 1.3 SSW 20 28 11 15 1022.1 1022.0 0.0
16/10:30pm 21.7 21.3 19.0 84 1.7 SSW 19 26 10 14 1022.1 1022.0 0.0
16/10:00pm 21.5 23.0 18.8 84 1.7 WSW 9 15 5 8 1022.1 1022.0 0.0
16/09:30pm 20.3 22.3 18.7 90 1.0 NE 6 7 3 4 1021.7 1021.6 0.0
16/09:00pm 21.5 23.7 19.3 87 1.4 NE 6 7 3 4 1021.5 1021.4 0.0
16/08:30pm 22.5 23.9 19.5 83 1.9 NNE 11 13 6 7 1021.3 1021.2 0.0
16/08:00pm 22.7 23.6 19.2 80 2.2 NNE 13 13 7 7 1020.9 1020.8 0.0
16/07:30pm 23.2 24.5 19.4 79 2.4 NE 11 13 6 7 1020.8 1020.7 0.0
16/07:00pm 24.0 25.2 19.1 74 3.1 NE 11 17 6 9 1020.6 1020.5 0.0
16/06:30pm 24.3 25.4 18.8 71 3.5 ENE 11 15 6 8 1020.4 1020.3 0.0
16/06:00pm 25.0 25.9 18.3 66 4.2 ENE 11 15 6 8 1020.1 1020.0 0.0
16/05:30pm 26.3 26.9 17.7 59 5.4 ENE 11 13 6 7 1019.7 1019.6 0.0
16/05:00pm 28.1 29.3 17.4 52 6.7 NE 7 17 4 9 1019.6 1019.5 0.0
16/04:30pm 30.1 29.9 14.6 39 9.4 WNW 9 13 5 7 1019.5 1019.4 0.0
16/04:00pm 30.8 29.0 13.4 34 10.4 WNW 15 19 8 10 1019.6 1019.5 0.0
16/03:30pm 30.9 29.1 13.3 34 10.5 WNW 15 20 8 11 1019.9 1019.8 0.0
16/03:00pm 31.1 28.3 12.7 32 10.9 WNW 19 26 10 14 1020.0 1019.9 0.0
16/02:30pm 31.1 28.7 12.7 32 10.9 WNW 17 28 9 15 1020.1 1020.0 0.0
16/02:00pm 31.1 28.2 12.9 32 10.8 WNW 20 32 11 17 1020.4 1020.3 0.0
16/01:30pm 30.5 26.9 12.9 34 10.4 WNW 24 32 13 17 1020.4 1020.3 0.0
16/01:00pm 30.5 26.3 13.6 35 10.1 NW 28 35 15 19 1020.5 1020.4 0.0
16/12:30pm 29.4 27.1 14.7 40 8.9 NW 20 32 11 17 1021.0 1020.9 0.0
16/12:00pm 28.2 27.3 15.8 47 7.6 NNW 15 20 8 11 1021.7 1021.6 0.0
16/11:30am 28.0 27.2 16.1 48 7.3 NNW 15 19 8 10 1022.2 1022.1 0.0
16/11:00am 26.6 26.1 15.8 51 6.6 N 13 19 7 10 1022.8 1022.7 0.0
16/10:30am 25.1 24.5 15.7 56 5.7 NNW 13 15 7 8 1023.2 1023.1 0.0
16/10:00am 24.5 23.9 15.7 58 5.3 NW 13 17 7 9 1023.5 1023.4 0.0
16/09:30am 23.1 21.9 15.0 60 4.8 NNW 15 20 8 11 1023.6 1023.5 0.0

Other Formats:

Comma delimited format used in spreadsheet applications
http://www.bom.gov.au/fwo/IDN60801/IDN60801.94776.axf

JavaScript Object Notation format (JSON) in row-major order
http://www.bom.gov.au/fwo/IDN60801/IDN60801.94776.json